Seven Springs, Florida
Current Conditions -  °F | °C
As of 4:25 PM on Saturday 22 Nov 2014 (Local Time) from KBKV Reporting Station
Overcast Overcast  
Wind Chill: 70°   Ceiling: 1200
Heat Index: 70°   Visibility: 10mi
Dew Point: 66°   Wind: 14mph
Humidity: 87%   Direction: 80°E
Pressure: 30.13"   Gusts: 20mph
Location:  28.2318°N, 82.5991°W
Report Text: KBKV 222125Z AUTO 08012G17KT 10SM BKN012 OVC019 21/19 A3013 RMK AO2 T02110189
Loading
Personal Weather Stations






























Interactive Weather Map New forecast layout! Learn more

10-Day Weather Forecast

Advertisements
Track Severe Weather on mobile